This is the latest recevied weather packets stored in our database for station/object OM6ACB-6. If no packets are shown the sender has not sent any weather packets the latest 10 day(s).
| Time | Temp. | Humidity | Pressure | Rain* | Wind** | Luminosity | Snow |
|---|---|---|---|---|---|---|---|
| 1777957480 | 7.22° C | 29% | 1015.2 hPa | 0 mm | - | - | - |
| 1777956880 | 7.22° C | 29% | 1015.3 hPa | 0 mm | - | - | - |
| 1777956280 | 5.56° C | 30% | 1015 hPa | 0 mm | - | - | - |
| 1777955679 | 6.67° C | 29% | 1015.2 hPa | 0 mm | - | - | - |
| 1777955079 | 5.56° C | 30% | 1015.1 hPa | 0 mm | - | - | - |
| 1777954479 | 2.22° C | 45% | 1014.5 hPa | 0 mm | - | - | - |
| 1777953878 | 2.22° C | 45% | 1014.5 hPa | 0 mm | - | - | - |
| 1777953278 | 2.22° C | 45% | 1014.5 hPa | 0 mm | - | - | - |
| 1777952678 | 2.22° C | 45% | 1014.5 hPa | 0 mm | - | - | - |
| 1777952078 | 2.22° C | 45% | 1014.5 hPa | 0 mm | - | - | - |
| 1777951477 | 2.22° C | 45% | 1014.5 hPa | 0 mm | - | - | - |
| 1777950877 | 2.22° C | 45% | 1014.6 hPa | 0 mm | - | - | - |
| 1777950277 | 2.22° C | 45% | 1014.6 hPa | 0 mm | - | - | - |
| 1777949676 | 2.22° C | 45% | 1014.7 hPa | 0 mm | - | - | - |
| 1777949076 | 2.22° C | 45% | 1014.8 hPa | 0 mm | - | - | - |
| 1777948476 | 2.22° C | 45% | 1014.8 hPa | 0 mm | - | - | - |
| 1777947876 | 2.22° C | 45% | 1014.9 hPa | 0 mm | - | - | - |
| 1777947275 | 2.22° C | 45% | 1015 hPa | 0 mm | - | - | - |
| 1777946675 | 2.22° C | 45% | 1015 hPa | 0 mm | - | - | - |
| 1777946075 | 2.22° C | 45% | 1015.1 hPa | 0 mm | - | - | - |
| 1777945474 | 2.22° C | 46% | 1015.1 hPa | 0 mm | - | - | - |
| 1777944874 | 2.22° C | 46% | 1015.2 hPa | 0 mm | - | - | - |
| 1777944274 | 2.22° C | 46% | 1015.2 hPa | 0 mm | - | - | - |
| 1777943674 | 2.22° C | 43% | 1015.3 hPa | 0 mm | - | - | - |
| 1777943074 | 2.78° C | 45% | 1015.3 hPa | 0 mm | - | - | - |
* Rain latest hour (hover to see other rain measurements)
** Current wind speed in m/s (hover to see current wind gust speed)